createdAt,value
2018-09-23T00:00:13.771Z,48.97
2018-09-23T00:02:41.583Z,49.68
2018-09-23T00:05:09.407Z,49.21
2018-09-23T00:07:37.140Z,50.04
2018-09-23T00:10:04.955Z,50.70
2018-09-23T00:12:32.786Z,50.55
2018-09-23T00:15:00.607Z,50.01
2018-09-23T00:17:28.343Z,50.01
2018-09-23T00:19:56.091Z,50.25
2018-09-23T00:22:23.889Z,50.46
2018-09-23T00:24:51.605Z,51.51
2018-09-23T00:27:19.412Z,51.61
2018-09-23T00:29:50.969Z,51.80
2018-09-23T00:32:20.605Z,50.77
2018-09-23T00:34:48.436Z,50.79
2018-09-23T00:37:16.154Z,51.04
2018-09-23T00:39:43.944Z,51.70
2018-09-23T00:42:11.655Z,51.41
2018-09-23T00:44:39.433Z,50.93
2018-09-23T00:47:13.823Z,51.19
2018-09-23T00:49:41.588Z,52.48
2018-09-23T00:52:09.390Z,52.85
2018-09-23T00:54:37.255Z,52.16
2018-09-23T00:57:05.048Z,53.08
2018-09-23T00:59:32.847Z,52.01
2018-09-23T01:02:00.592Z,52.27
2018-09-23T01:04:28.435Z,52.50
2018-09-23T01:06:56.203Z,51.72
2018-09-23T01:09:23.975Z,52.28
2018-09-23T01:11:51.693Z,52.71
2018-09-23T01:14:19.431Z,52.80
2018-09-23T01:16:47.148Z,53.35
2018-09-23T01:19:14.915Z,53.07
2018-09-23T01:21:42.674Z,52.13
2018-09-23T01:24:10.446Z,52.79
2018-09-23T01:26:38.207Z,52.80
2018-09-23T01:29:06.127Z,53.11
2018-09-23T01:31:33.944Z,52.25
2018-09-23T01:34:01.704Z,52.40
2018-09-23T01:36:29.629Z,52.46
2018-09-23T01:38:57.383Z,52.65
2018-09-23T01:41:25.139Z,52.47
2018-09-23T01:43:52.907Z,52.79
2018-09-23T01:46:20.705Z,52.62
2018-09-23T01:48:48.440Z,52.72
2018-09-23T01:51:16.198Z,53.17
2018-09-23T01:53:43.996Z,53.30
2018-09-23T01:56:11.730Z,52.73
2018-09-23T01:58:39.478Z,54.56
2018-09-23T02:01:07.291Z,53.29
2018-09-23T02:03:35.060Z,53.35
2018-09-23T02:06:02.834Z,53.38
2018-09-23T02:08:30.628Z,52.90
2018-09-23T02:10:58.346Z,53.70
2018-09-23T02:13:26.126Z,53.46
2018-09-23T02:15:53.927Z,54.13
2018-09-23T02:18:21.731Z,53.34
2018-09-23T02:20:49.539Z,54.77
2018-09-23T02:23:17.275Z,53.93
2018-09-23T02:25:45.003Z,54.29
2018-09-23T02:28:12.773Z,55.30
2018-09-23T02:30:40.644Z,55.32
2018-09-23T02:33:08.419Z,55.41
2018-09-23T02:35:36.220Z,55.64
2018-09-23T02:38:04.095Z,55.77
2018-09-23T02:40:31.870Z,56.14
2018-09-23T02:42:59.614Z,55.75
2018-09-23T02:45:27.381Z,55.54
2018-09-23T02:47:55.058Z,55.74
2018-09-23T02:50:24.246Z,55.54
2018-09-23T02:52:51.971Z,55.78
2018-09-23T02:55:19.782Z,54.92
2018-09-23T02:57:47.626Z,55.22
2018-09-23T03:00:15.403Z,56.26
2018-09-23T03:02:43.171Z,55.78
2018-09-23T03:05:10.939Z,55.74
2018-09-23T03:07:38.747Z,56.00
2018-09-23T03:10:06.570Z,56.57
2018-09-23T03:12:34.356Z,56.33
2018-09-23T03:15:02.183Z,56.47
2018-09-23T03:17:29.960Z,56.52
2018-09-23T03:19:57.708Z,58.09
2018-09-23T03:22:25.432Z,57.13
2018-09-23T03:24:53.189Z,56.90
2018-09-23T03:27:20.872Z,56.88
2018-09-23T03:29:48.694Z,55.75
2018-09-23T03:32:18.074Z,55.43
2018-09-23T03:34:45.794Z,55.24
2018-09-23T03:37:13.621Z,56.46
2018-09-23T03:39:41.419Z,56.14
2018-09-23T03:42:09.174Z,56.18
2018-09-23T03:44:36.959Z,56.54
2018-09-23T03:47:04.755Z,56.34
2018-09-23T03:49:32.615Z,57.14
2018-09-23T03:52:00.408Z,57.00
2018-09-23T03:54:28.124Z,57.50
2018-09-23T03:56:55.888Z,57.23
2018-09-23T03:59:23.713Z,55.75
2018-09-23T04:01:51.511Z,57.04
2018-09-23T04:04:19.235Z,56.75
2018-09-23T04:06:47.010Z,56.45
2018-09-23T04:09:14.762Z,55.65
2018-09-23T04:11:42.506Z,55.26
2018-09-23T04:14:10.242Z,55.34
2018-09-23T04:16:37.998Z,54.68
2018-09-23T04:19:05.895Z,54.66
2018-09-23T04:21:33.695Z,54.05
2018-09-23T04:24:01.402Z,53.41
2018-09-23T04:26:29.253Z,53.15
2018-09-23T04:28:56.980Z,52.29
2018-09-23T04:31:24.731Z,52.44
2018-09-23T04:33:52.519Z,52.08
2018-09-23T04:36:20.371Z,52.00
2018-09-23T04:38:48.106Z,51.60
2018-09-23T04:41:15.827Z,50.62
2018-09-23T04:43:43.630Z,50.80
2018-09-23T04:46:11.367Z,51.31
2018-09-23T04:48:39.148Z,50.87
2018-09-23T04:51:06.979Z,51.19
2018-09-23T04:53:34.727Z,52.10
2018-09-23T04:56:02.494Z,51.59
2018-09-23T04:58:30.249Z,51.47
2018-09-23T05:00:57.971Z,51.57
2018-09-23T05:03:25.703Z,50.90
2018-09-23T05:05:53.587Z,50.93
2018-09-23T05:08:21.399Z,48.88
2018-09-23T05:10:49.172Z,48.57
2018-09-23T05:13:16.959Z,47.13
2018-09-23T05:15:44.686Z,46.98
2018-09-23T05:18:12.525Z,46.12
2018-09-23T05:20:40.334Z,44.66
2018-09-23T05:23:08.010Z,44.69
2018-09-23T05:25:35.760Z,44.00
2018-09-23T05:28:03.511Z,44.16
2018-09-23T05:30:31.280Z,46.87
2018-09-23T05:32:59.115Z,48.26
2018-09-23T05:35:26.977Z,50.65
2018-09-23T05:37:54.834Z,51.72
2018-09-23T05:40:22.645Z,51.02
2018-09-23T05:42:50.579Z,51.67
2018-09-23T05:45:18.366Z,51.20
2018-09-23T05:47:46.094Z,50.62
2018-09-23T05:50:13.906Z,50.42
2018-09-23T05:52:41.643Z,49.67
2018-09-23T05:55:09.369Z,47.61
2018-09-23T05:57:37.196Z,45.56
2018-09-23T06:00:05.112Z,43.57
2018-09-23T06:02:32.894Z,42.86
2018-09-23T06:05:00.743Z,40.38
2018-09-23T06:07:28.532Z,38.95
2018-09-23T06:09:56.316Z,38.32
2018-09-23T06:12:24.075Z,37.68
2018-09-23T06:14:51.811Z,37.23
2018-09-23T06:17:19.543Z,37.33
2018-09-23T06:19:47.344Z,38.61
2018-09-23T06:22:15.131Z,38.15
2018-09-23T06:24:42.907Z,37.88
2018-09-23T06:27:10.720Z,37.91
2018-09-23T06:29:38.440Z,38.93
2018-09-23T06:32:06.268Z,37.46
2018-09-23T06:34:34.071Z,39.92
2018-09-23T06:37:01.853Z,38.25
2018-09-23T06:39:29.707Z,39.23
2018-09-23T06:41:57.571Z,40.54
2018-09-23T06:44:25.280Z,40.90
2018-09-23T06:46:52.992Z,39.54
2018-09-23T06:49:20.755Z,39.43
2018-09-23T06:51:48.599Z,38.58
2018-09-23T06:54:16.388Z,36.34
2018-09-23T06:56:44.241Z,36.98
2018-09-23T06:59:12.043Z,36.75
2018-09-23T07:01:39.836Z,36.81
2018-09-23T07:04:07.575Z,35.32
2018-09-23T07:06:35.271Z,36.32
2018-09-23T07:09:03.451Z,39.18
2018-09-23T07:11:31.240Z,38.92
2018-09-23T07:13:59.011Z,35.95
2018-09-23T07:16:26.714Z,37.32
2018-09-23T07:18:54.484Z,36.52
2018-09-23T07:21:22.233Z,36.24
2018-09-23T07:23:50.022Z,35.92
2018-09-23T07:26:17.795Z,38.20
2018-09-23T07:28:45.532Z,39.40
2018-09-23T07:31:13.379Z,38.07
2018-09-23T07:33:41.223Z,39.16
2018-09-23T07:36:09.020Z,38.14
2018-09-23T07:38:36.797Z,38.00
2018-09-23T07:41:04.526Z,38.31
2018-09-23T07:43:32.265Z,38.75
2018-09-23T07:46:00.011Z,38.03
2018-09-23T07:48:27.726Z,38.17
2018-09-23T07:50:55.516Z,38.00
2018-09-23T07:53:23.246Z,38.03
2018-09-23T07:55:51.058Z,37.21
2018-09-23T07:58:18.802Z,38.53
2018-09-23T08:00:46.554Z,37.63
2018-09-23T08:03:14.355Z,37.07
2018-09-23T08:05:42.080Z,36.39
2018-09-23T08:08:09.880Z,36.00
2018-09-23T08:10:37.726Z,36.78
2018-09-23T08:13:05.680Z,36.17
2018-09-23T08:15:33.458Z,35.59
2018-09-23T08:18:01.451Z,34.23
2018-09-23T08:20:29.333Z,32.35
2018-09-23T08:22:56.984Z,30.22
2018-09-23T08:25:24.823Z,31.00
2018-09-23T08:27:52.591Z,31.18
2018-09-23T08:30:20.455Z,30.94
2018-09-23T08:32:48.269Z,29.18
2018-09-23T08:35:16.120Z,28.86
2018-09-23T08:37:43.907Z,28.03
2018-09-23T08:40:11.746Z,26.89
2018-09-23T08:42:39.471Z,26.87
2018-09-23T08:45:07.325Z,29.24
2018-09-23T08:47:35.135Z,27.13
2018-09-23T08:50:02.967Z,26.92
2018-09-23T08:52:30.759Z,28.89
2018-09-23T08:54:58.546Z,30.88
2018-09-23T08:57:26.336Z,31.35
2018-09-23T08:59:54.125Z,29.92
2018-09-23T09:02:21.952Z,28.44
2018-09-23T09:04:49.757Z,27.38
2018-09-23T09:07:17.538Z,28.67
2018-09-23T09:09:45.398Z,27.69
2018-09-23T09:12:13.201Z,28.76
2018-09-23T09:14:40.971Z,26.08
2018-09-23T09:17:08.799Z,26.51
2018-09-23T09:19:36.616Z,26.99
2018-09-23T09:22:04.457Z,27.86
2018-09-23T09:24:32.323Z,30.41
2018-09-23T09:27:00.140Z,29.29
2018-09-23T09:29:27.958Z,27.19
2018-09-23T09:31:55.788Z,27.98
2018-09-23T09:34:23.702Z,29.47
2018-09-23T09:36:51.656Z,29.31
2018-09-23T09:39:19.508Z,29.62
2018-09-23T09:41:47.363Z,27.26
2018-09-23T09:44:15.272Z,26.56
2018-09-23T09:46:43.090Z,28.19
2018-09-23T09:49:10.902Z,26.91
2018-09-23T09:51:38.677Z,25.65
2018-09-23T09:54:06.571Z,27.52
2018-09-23T09:56:34.386Z,27.59
2018-09-23T09:59:02.170Z,28.91
2018-09-23T10:01:30.011Z,30.15
2018-09-23T10:03:57.879Z,28.76
2018-09-23T10:06:25.699Z,27.89
2018-09-23T10:08:53.566Z,27.35
2018-09-23T10:11:21.346Z,28.82
2018-09-23T10:13:49.162Z,30.08
2018-09-23T10:16:16.989Z,28.10
2018-09-23T10:18:44.800Z,29.68
2018-09-23T10:21:12.592Z,28.25
2018-09-23T10:23:40.780Z,27.77
2018-09-23T10:26:08.315Z,28.15
2018-09-23T10:28:36.121Z,29.57
2018-09-23T10:31:04.034Z,29.22
2018-09-23T10:33:31.818Z,28.57
2018-09-23T10:35:59.672Z,27.29
2018-09-23T10:38:27.512Z,26.63
2018-09-23T10:40:55.336Z,27.54
2018-09-23T10:43:23.118Z,27.46
2018-09-23T10:45:50.957Z,25.87
2018-09-23T10:48:18.838Z,25.39
2018-09-23T10:50:46.605Z,25.48
2018-09-23T10:53:14.466Z,26.89
2018-09-23T10:55:42.301Z,28.24
2018-09-23T10:58:10.120Z,29.44
2018-09-23T11:00:38.037Z,30.31
2018-09-23T11:03:05.816Z,28.06
2018-09-23T11:05:33.641Z,29.33
2018-09-23T11:08:01.476Z,29.12
2018-09-23T11:10:29.305Z,29.48
2018-09-23T11:12:57.133Z,28.42
2018-09-23T11:15:25.166Z,27.41
2018-09-23T11:17:53.094Z,25.85
2018-09-23T11:20:20.880Z,27.10
2018-09-23T11:22:48.748Z,27.52
2018-09-23T11:25:16.572Z,27.83
2018-09-23T11:27:44.375Z,27.83
2018-09-23T11:30:12.240Z,27.26
2018-09-23T11:32:40.062Z,26.84
2018-09-23T11:35:08.240Z,25.15
2018-09-23T11:37:36.143Z,25.63
2018-09-23T11:40:04.330Z,24.39
2018-09-23T11:42:32.129Z,24.87
2018-09-23T11:44:59.970Z,25.48
2018-09-23T11:47:27.800Z,25.89
2018-09-23T11:49:55.595Z,26.31
2018-09-23T11:52:23.530Z,25.77
2018-09-23T11:54:51.352Z,25.63
2018-09-23T11:57:19.179Z,26.10
2018-09-23T11:59:47.234Z,25.23
2018-09-23T12:02:15.195Z,23.93
2018-09-23T12:04:43.004Z,24.58
2018-09-23T12:07:10.833Z,23.85
2018-09-23T12:09:38.623Z,25.24
2018-09-23T12:12:06.453Z,25.87
2018-09-23T12:14:34.303Z,25.02
2018-09-23T12:17:02.130Z,25.62
2018-09-23T12:19:29.964Z,24.00
2018-09-23T12:21:57.793Z,24.32
2018-09-23T12:24:25.585Z,23.86
2018-09-23T12:26:53.384Z,22.71
2018-09-23T12:29:21.244Z,24.29
2018-09-23T12:31:49.032Z,25.68
2018-09-23T12:34:16.883Z,26.12
2018-09-23T12:36:44.707Z,23.74
2018-09-23T12:39:12.505Z,23.54
2018-09-23T12:41:40.518Z,23.76
2018-09-23T12:44:08.809Z,23.89
2018-09-23T12:46:36.588Z,23.99
2018-09-23T12:49:04.417Z,25.36
2018-09-23T12:51:32.257Z,25.51
2018-09-23T12:54:00.049Z,25.89
2018-09-23T12:56:27.875Z,25.18
2018-09-23T12:58:55.713Z,25.07
2018-09-23T13:01:23.529Z,25.86
2018-09-23T13:03:51.310Z,25.60
2018-09-23T13:06:19.143Z,25.89
2018-09-23T13:08:46.897Z,25.66
2018-09-23T13:11:14.686Z,24.90
2018-09-23T13:13:42.544Z,24.88
2018-09-23T13:16:10.330Z,25.02
2018-09-23T13:18:38.148Z,24.69
2018-09-23T13:21:06.075Z,25.74
2018-09-23T13:23:33.917Z,25.80
2018-09-23T13:26:01.713Z,27.40
2018-09-23T13:28:29.544Z,27.71
2018-09-23T13:30:57.356Z,25.96
2018-09-23T13:33:25.129Z,25.32
2018-09-23T13:35:52.929Z,24.99
2018-09-23T13:40:54.033Z,26.07
2018-09-23T13:43:21.844Z,26.38
2018-09-23T13:45:49.704Z,27.22
2018-09-23T13:48:17.562Z,27.49
2018-09-23T13:50:45.352Z,27.70
2018-09-23T13:53:13.134Z,27.40
2018-09-23T13:55:40.982Z,26.61
2018-09-23T13:58:08.770Z,26.95
2018-09-23T14:00:36.572Z,26.75
2018-09-23T14:03:04.458Z,26.26
2018-09-23T14:05:32.249Z,25.82
2018-09-23T14:08:00.070Z,26.20
2018-09-23T14:10:27.898Z,26.62
2018-09-23T14:12:55.698Z,25.20
2018-09-23T14:15:23.505Z,25.49
2018-09-23T14:17:51.315Z,26.09
2018-09-23T14:20:19.121Z,26.69
2018-09-23T14:22:46.877Z,26.34
2018-09-23T14:25:14.707Z,27.72
2018-09-23T14:27:42.473Z,28.39
2018-09-23T14:30:10.246Z,27.87
2018-09-23T14:32:38.074Z,27.95
2018-09-23T14:35:06.027Z,27.29
2018-09-23T14:37:33.802Z,26.64
2018-09-23T14:40:01.649Z,26.92
2018-09-23T14:42:29.534Z,27.87
2018-09-23T14:44:57.327Z,28.04
2018-09-23T14:47:25.233Z,29.55
2018-09-23T14:49:53.022Z,29.19
2018-09-23T14:52:20.817Z,29.95
2018-09-23T14:54:48.843Z,29.58
2018-09-23T14:57:16.429Z,29.87
2018-09-23T14:59:44.215Z,29.45
2018-09-23T15:02:12.065Z,29.25
2018-09-23T15:04:39.882Z,29.93
2018-09-23T15:07:07.701Z,29.85
2018-09-23T15:09:35.567Z,29.69
2018-09-23T15:12:03.385Z,29.74
2018-09-23T15:14:31.186Z,29.25
2018-09-23T15:16:59.029Z,30.17
2018-09-23T15:19:26.842Z,30.96
2018-09-23T15:21:54.713Z,30.82
2018-09-23T15:24:22.600Z,32.24
2018-09-23T15:26:50.391Z,32.50
2018-09-23T15:29:18.206Z,32.86
2018-09-23T15:31:46.016Z,32.90
2018-09-23T15:34:13.774Z,33.71
2018-09-23T15:36:41.542Z,32.99
2018-09-23T15:39:09.365Z,33.73
2018-09-23T15:41:37.645Z,33.79
2018-09-23T15:44:05.728Z,35.24
2018-09-23T15:46:33.592Z,35.46
2018-09-23T15:49:01.360Z,36.69
2018-09-23T15:51:29.103Z,37.32
2018-09-23T15:53:56.880Z,37.45
2018-09-23T15:56:24.687Z,37.94
2018-09-23T15:58:52.425Z,38.36
2018-09-23T16:01:20.211Z,39.19
2018-09-23T16:03:47.956Z,39.00
2018-09-23T16:06:15.694Z,40.46
2018-09-23T16:08:43.488Z,40.72
2018-09-23T16:11:11.171Z,39.77
2018-09-23T16:13:38.942Z,40.16
2018-09-23T16:16:07.278Z,40.16
2018-09-23T16:18:35.189Z,41.06
2018-09-23T16:21:02.961Z,40.42
2018-09-23T16:23:30.852Z,41.03
2018-09-23T16:25:58.778Z,42.00
2018-09-23T16:28:26.526Z,42.07
2018-09-23T16:30:54.340Z,41.95
2018-09-23T16:33:22.085Z,42.36
2018-09-23T16:35:49.864Z,43.40
2018-09-23T16:38:17.691Z,43.68
2018-09-23T16:40:45.515Z,43.83
2018-09-23T16:43:13.300Z,44.51
2018-09-23T16:45:41.128Z,45.47
2018-09-23T16:48:08.851Z,45.56
2018-09-23T16:50:36.661Z,46.02
2018-09-23T16:53:04.555Z,45.56
2018-09-23T16:55:32.323Z,45.91
2018-09-23T16:58:00.077Z,46.22
2018-09-23T17:00:27.909Z,46.09
2018-09-23T17:02:55.665Z,45.58
2018-09-23T17:05:23.649Z,45.84
2018-09-23T17:07:51.487Z,45.46
2018-09-23T17:10:19.351Z,44.90
2018-09-23T17:12:47.168Z,44.69
2018-09-23T17:15:14.997Z,45.88
2018-09-23T17:17:42.752Z,45.14
2018-09-23T17:20:10.514Z,46.69
2018-09-23T17:22:38.286Z,46.16
2018-09-23T17:25:06.068Z,45.80
2018-09-23T17:27:33.844Z,45.98
2018-09-23T17:30:01.707Z,45.93
2018-09-23T17:32:29.602Z,45.97
2018-09-23T17:34:57.406Z,44.63
2018-09-23T17:37:25.276Z,45.34
2018-09-23T17:39:53.027Z,45.75
2018-09-23T17:42:20.843Z,45.39
2018-09-23T17:44:48.690Z,46.42
2018-09-23T17:47:16.494Z,46.04
2018-09-23T17:49:44.264Z,47.17
2018-09-23T17:52:12.047Z,47.34
2018-09-23T17:54:39.807Z,47.57
2018-09-23T17:57:07.559Z,47.77
2018-09-23T17:59:35.396Z,47.22
2018-09-23T18:02:03.319Z,47.90
2018-09-23T18:04:31.028Z,47.49
2018-09-23T18:06:58.861Z,48.09
2018-09-23T18:09:26.623Z,47.58
2018-09-23T18:11:54.428Z,48.16
2018-09-23T18:14:22.199Z,48.33
2018-09-23T18:16:49.907Z,48.54
2018-09-23T18:19:17.616Z,48.49
2018-09-23T18:21:45.417Z,48.87
2018-09-23T18:24:13.203Z,49.25
2018-09-23T18:26:40.975Z,48.99
2018-09-23T18:29:08.772Z,48.58
2018-09-23T18:31:36.583Z,48.39
2018-09-23T18:34:04.378Z,48.83
2018-09-23T18:36:32.176Z,48.72
2018-09-23T18:38:59.931Z,48.05
2018-09-23T18:41:27.614Z,48.61
2018-09-23T18:43:55.429Z,47.84
2018-09-23T18:46:23.213Z,48.44
2018-09-23T18:48:50.955Z,48.25
2018-09-23T18:51:18.797Z,48.17
2018-09-23T18:53:53.063Z,47.81
2018-09-23T18:56:20.895Z,46.91
2018-09-23T18:58:48.667Z,46.64
2018-09-23T19:01:16.471Z,46.01
2018-09-23T19:03:44.281Z,45.87
2018-09-23T19:06:11.988Z,46.35
2018-09-23T19:08:39.751Z,45.99
2018-09-23T19:11:07.539Z,45.38
2018-09-23T19:13:40.666Z,46.21
2018-09-23T19:16:14.179Z,46.49
2018-09-23T19:18:41.931Z,46.01
2018-09-23T19:21:09.682Z,47.07
2018-09-23T19:23:37.772Z,47.04
2018-09-23T19:26:05.748Z,47.16
2018-09-23T19:28:33.555Z,46.46
2018-09-23T19:31:01.343Z,46.42
2018-09-23T19:33:29.084Z,46.37
2018-09-23T19:35:56.871Z,46.07
2018-09-23T19:38:24.647Z,45.91
2018-09-23T19:40:52.391Z,46.94
2018-09-23T19:43:20.136Z,46.07
2018-09-23T19:45:47.994Z,46.55
2018-09-23T19:48:15.754Z,46.12
2018-09-23T19:50:43.483Z,46.45
2018-09-23T19:53:11.245Z,46.01
2018-09-23T19:55:38.958Z,46.17
2018-09-23T19:58:06.745Z,45.61
2018-09-23T20:00:34.539Z,45.80
2018-09-23T20:03:02.407Z,46.00
2018-09-23T20:05:30.126Z,45.98
2018-09-23T20:07:57.852Z,46.70
2018-09-23T20:10:25.580Z,45.66
2018-09-23T20:12:53.347Z,46.02
2018-09-23T20:15:21.167Z,46.12
2018-09-23T20:17:48.905Z,46.15
2018-09-23T20:20:16.696Z,46.56
2018-09-23T20:22:44.526Z,46.35
2018-09-23T20:25:12.446Z,46.19
2018-09-23T20:27:40.266Z,46.54
2018-09-23T20:30:08.075Z,46.86
2018-09-23T20:32:35.862Z,47.15
2018-09-23T20:35:04.758Z,46.92
2018-09-23T20:37:32.560Z,47.05
2018-09-23T20:40:00.421Z,46.84
2018-09-23T20:42:28.143Z,46.82
2018-09-23T20:44:55.949Z,47.00
2018-09-23T20:47:23.719Z,47.18
2018-09-23T20:49:51.449Z,46.87
2018-09-23T20:52:19.282Z,47.55
2018-09-23T20:54:47.051Z,47.60
2018-09-23T20:57:14.735Z,48.40
2018-09-23T20:59:42.522Z,50.00
2018-09-23T21:02:10.343Z,50.13
2018-09-23T21:04:38.052Z,51.99
2018-09-23T21:07:05.943Z,52.71
2018-09-23T21:09:33.703Z,54.26
2018-09-23T21:12:01.525Z,54.16
2018-09-23T21:14:29.373Z,53.64
2018-09-23T21:16:57.186Z,53.49
2018-09-23T21:19:24.951Z,53.23
2018-09-23T21:21:52.776Z,53.64
2018-09-23T21:24:20.494Z,53.49
2018-09-23T21:26:50.009Z,53.71
2018-09-23T21:29:17.827Z,53.80
2018-09-23T21:31:45.656Z,54.14
2018-09-23T21:34:13.384Z,55.46
2018-09-23T21:36:41.422Z,55.08
2018-09-23T21:39:10.008Z,54.60
2018-09-23T21:41:37.803Z,55.25
2018-09-23T21:44:05.750Z,55.68
2018-09-23T21:46:33.572Z,55.04
2018-09-23T21:49:01.580Z,54.16
2018-09-23T21:51:30.377Z,54.32
2018-09-23T21:53:58.172Z,53.70
2018-09-23T21:56:26.063Z,53.62
2018-09-23T21:58:53.972Z,53.16
2018-09-23T22:01:21.695Z,53.71
2018-09-23T22:03:49.410Z,53.86
2018-09-23T22:06:17.180Z,53.83
2018-09-23T22:08:44.863Z,53.51
2018-09-23T22:11:12.623Z,53.29
2018-09-23T22:13:40.485Z,52.35
2018-09-23T22:16:08.184Z,52.37
2018-09-23T22:18:35.914Z,52.12
2018-09-23T22:21:03.720Z,50.44
2018-09-23T22:23:31.548Z,49.89
2018-09-23T22:25:59.226Z,50.58
2018-09-23T22:28:27.113Z,50.77
2018-09-23T22:30:54.848Z,50.86
2018-09-23T22:33:22.607Z,50.88
2018-09-23T22:35:50.343Z,50.91
2018-09-23T22:38:18.139Z,51.03
2018-09-23T22:40:45.934Z,50.78
2018-09-23T22:43:13.740Z,50.92
2018-09-23T22:45:41.548Z,51.73
2018-09-23T22:48:09.290Z,51.98
2018-09-23T22:50:37.071Z,53.31
2018-09-23T22:53:04.795Z,52.94
2018-09-23T22:55:32.556Z,52.39
2018-09-23T22:58:00.360Z,51.97
2018-09-23T23:00:28.127Z,51.20
2018-09-23T23:02:55.868Z,51.49
2018-09-23T23:05:23.643Z,52.02
2018-09-23T23:07:51.446Z,51.81
2018-09-23T23:10:19.177Z,51.87
2018-09-23T23:12:46.950Z,51.52
2018-09-23T23:15:14.731Z,52.40
2018-09-23T23:17:42.512Z,52.86
2018-09-23T23:20:10.259Z,53.27
2018-09-23T23:22:37.992Z,53.78
2018-09-23T23:25:05.911Z,55.50
2018-09-23T23:27:33.650Z,56.21
2018-09-23T23:30:01.387Z,56.42
2018-09-23T23:32:29.113Z,57.41
2018-09-23T23:34:56.899Z,57.00
2018-09-23T23:37:24.660Z,57.84
2018-09-23T23:39:52.403Z,57.73
2018-09-23T23:42:20.146Z,58.24
2018-09-23T23:44:47.898Z,57.45
2018-09-23T23:47:15.634Z,57.78
2018-09-23T23:49:43.430Z,57.97
2018-09-23T23:52:11.131Z,59.02
2018-09-23T23:54:38.914Z,58.95
2018-09-23T23:57:06.716Z,57.93
2018-09-23T23:59:34.504Z,57.48
